createdAt,value
2018-04-26T00:00:51.479Z,2.57
2018-04-26T00:03:18.946Z,3.30
2018-04-26T00:05:46.429Z,2.77
2018-04-26T00:08:14.002Z,2.90
2018-04-26T00:10:42.333Z,2.50
2018-04-26T00:13:09.795Z,2.97
2018-04-26T00:15:37.261Z,3.03
2018-04-26T00:18:04.753Z,2.60
2018-04-26T00:20:32.214Z,2.80
2018-04-26T00:22:59.670Z,2.87
2018-04-26T00:25:29.073Z,2.80
2018-04-26T00:27:56.543Z,2.97
2018-04-26T00:30:23.979Z,3.20
2018-04-26T00:32:52.822Z,2.93
2018-04-26T00:35:20.470Z,3.27
2018-04-26T00:37:47.947Z,2.80
2018-04-26T00:40:15.401Z,2.93
2018-04-26T00:42:43.679Z,3.63
2018-04-26T00:45:11.124Z,2.93
2018-04-26T00:47:38.566Z,2.77
2018-04-26T00:50:06.014Z,3.07
2018-04-26T00:52:33.518Z,3.20
2018-04-26T00:55:00.969Z,3.07
2018-04-26T00:57:28.446Z,2.97
2018-04-26T00:59:55.927Z,3.33
2018-04-26T01:02:23.454Z,3.13
2018-04-26T01:04:50.926Z,2.73
2018-04-26T01:07:18.408Z,2.90
2018-04-26T01:09:45.857Z,3.00
2018-04-26T01:12:13.310Z,2.67
2018-04-26T01:14:40.769Z,2.77
2018-04-26T01:17:08.237Z,2.70
2018-04-26T01:19:35.686Z,2.83
2018-04-26T01:22:03.146Z,2.73
2018-04-26T01:24:30.609Z,2.93
2018-04-26T01:26:58.071Z,2.93
2018-04-26T01:29:26.959Z,2.77
2018-04-26T01:31:54.466Z,3.20
2018-04-26T01:34:21.993Z,2.90
2018-04-26T01:37:01.371Z,2.90
2018-04-26T01:39:28.904Z,2.60
2018-04-26T01:41:56.372Z,2.53
2018-04-26T01:44:23.818Z,3.10
2018-04-26T01:46:51.311Z,2.90
2018-04-26T01:49:18.780Z,3.00
2018-04-26T01:51:46.210Z,2.80
2018-04-26T01:54:14.633Z,3.00
2018-04-26T01:56:42.083Z,3.17
2018-04-26T01:59:09.542Z,2.90
2018-04-26T02:01:36.998Z,2.90
2018-04-26T02:04:04.565Z,3.37
2018-04-26T02:06:32.037Z,3.90
2018-04-26T02:08:59.495Z,3.30
2018-04-26T02:11:26.962Z,3.50
2018-04-26T02:13:54.517Z,3.40
2018-04-26T02:16:22.017Z,3.20
2018-04-26T02:18:50.290Z,3.20
2018-04-26T02:21:17.747Z,3.70
2018-04-26T02:23:45.202Z,3.33
2018-04-26T02:26:12.680Z,3.37
2018-04-26T02:28:40.946Z,3.70
2018-04-26T02:31:08.503Z,3.50
2018-04-26T02:33:35.961Z,3.23
2018-04-26T02:36:03.417Z,3.90
2018-04-26T02:38:30.885Z,3.40
2018-04-26T02:40:58.356Z,3.40
2018-04-26T02:43:25.838Z,3.87
2018-04-26T02:45:53.294Z,3.73
2018-04-26T02:48:20.765Z,3.63
2018-04-26T02:50:48.218Z,3.17
2018-04-26T02:53:15.648Z,3.27
2018-04-26T02:55:43.114Z,3.87
2018-04-26T02:58:10.597Z,3.47
2018-04-26T03:00:38.158Z,3.60
2018-04-26T03:03:05.609Z,3.43
2018-04-26T03:05:33.073Z,3.60
2018-04-26T03:08:00.538Z,3.47
2018-04-26T03:10:27.998Z,3.77
2018-04-26T03:12:55.453Z,3.83
2018-04-26T03:15:22.918Z,3.40
2018-04-26T03:17:50.410Z,4.00
2018-04-26T03:20:18.630Z,3.67
2018-04-26T03:22:46.126Z,4.07
2018-04-26T03:25:13.574Z,3.90
2018-04-26T03:27:41.036Z,3.40
2018-04-26T03:30:08.484Z,4.03
2018-04-26T03:32:36.896Z,3.90
2018-04-26T03:35:04.442Z,4.57
2018-04-26T03:37:31.919Z,3.80
2018-04-26T03:39:59.382Z,4.00
2018-04-26T03:42:26.825Z,3.80
2018-04-26T03:44:55.326Z,3.77
2018-04-26T03:47:23.672Z,4.10
2018-04-26T03:49:51.398Z,4.10
2018-04-26T03:52:18.867Z,3.90
2018-04-26T03:54:46.311Z,3.73
2018-04-26T03:57:13.796Z,3.90
2018-04-26T03:59:53.065Z,3.90
2018-04-26T04:02:32.477Z,4.00
2018-04-26T04:05:11.887Z,3.77
2018-04-26T04:07:39.433Z,3.73
2018-04-26T04:10:07.109Z,4.43
2018-04-26T04:12:34.560Z,3.60
2018-04-26T04:15:02.032Z,4.00
2018-04-26T04:17:29.473Z,3.90
2018-04-26T04:19:56.953Z,3.93
2018-04-26T04:22:24.395Z,3.80
2018-04-26T04:24:51.834Z,3.40
2018-04-26T04:27:20.082Z,3.77
2018-04-26T04:29:47.555Z,4.10
2018-04-26T04:32:15.029Z,4.03
2018-04-26T04:34:43.302Z,3.80
2018-04-26T04:37:13.118Z,3.87
2018-04-26T04:39:41.954Z,4.17
2018-04-26T04:42:09.437Z,3.50
2018-04-26T04:44:37.022Z,3.83
2018-04-26T04:47:04.474Z,3.50
2018-04-26T04:49:31.934Z,3.40
2018-04-26T04:51:59.428Z,3.90
2018-04-26T04:54:26.861Z,3.63
2018-04-26T04:56:54.315Z,3.83
2018-04-26T04:59:22.320Z,3.60
2018-04-26T05:01:49.880Z,4.03
2018-04-26T05:04:17.371Z,3.70
2018-04-26T05:06:45.601Z,4.07
2018-04-26T05:09:13.317Z,4.30
2018-04-26T05:11:40.941Z,3.77
2018-04-26T05:14:08.386Z,4.13
2018-04-26T05:16:35.854Z,3.60
2018-04-26T05:19:03.436Z,3.87
2018-04-26T05:21:30.992Z,3.80
2018-04-26T05:23:58.559Z,3.90
2018-04-26T05:26:26.030Z,3.80
2018-04-26T05:28:53.582Z,4.00
2018-04-26T05:31:21.040Z,3.87
2018-04-26T05:33:48.519Z,4.10
2018-04-26T05:36:16.020Z,3.87
2018-04-26T05:38:43.438Z,4.03
2018-04-26T05:41:10.887Z,3.17
2018-04-26T05:43:38.433Z,3.60
2018-04-26T05:46:05.903Z,3.77
2018-04-26T05:48:33.359Z,3.73
2018-04-26T05:51:00.838Z,3.37
2018-04-26T05:53:28.312Z,3.70
2018-04-26T05:55:55.861Z,3.70
2018-04-26T05:58:23.255Z,3.20
2018-04-26T06:00:50.705Z,3.30
2018-04-26T06:03:18.185Z,3.13
2018-04-26T06:05:45.677Z,3.33
2018-04-26T06:08:13.895Z,3.00
2018-04-26T06:10:41.439Z,3.47
2018-04-26T06:13:08.939Z,2.70
2018-04-26T06:15:36.723Z,2.70
2018-04-26T06:18:04.167Z,2.80
2018-04-26T06:20:31.735Z,2.87
2018-04-26T06:22:59.218Z,2.77
2018-04-26T06:25:26.776Z,2.73
2018-04-26T06:27:54.213Z,2.87
2018-04-26T06:30:21.694Z,2.40
2018-04-26T06:32:49.346Z,3.00
2018-04-26T06:35:17.666Z,2.50
2018-04-26T06:37:45.200Z,2.00
2018-04-26T06:40:12.653Z,2.37
2018-04-26T06:42:40.190Z,3.20
2018-04-26T06:45:07.728Z,2.50
2018-04-26T06:47:35.947Z,2.47
2018-04-26T06:50:03.404Z,2.30
2018-04-26T06:52:30.858Z,2.37
2018-04-26T06:54:58.424Z,2.20
2018-04-26T06:57:25.866Z,1.90
2018-04-26T06:59:54.105Z,2.30
2018-04-26T07:02:21.665Z,2.10
2018-04-26T07:04:49.141Z,2.10
2018-04-26T07:07:16.594Z,2.27
2018-04-26T07:09:44.068Z,2.00
2018-04-26T07:12:11.705Z,2.00
2018-04-26T07:14:39.103Z,2.37
2018-04-26T07:17:07.329Z,2.20
2018-04-26T07:19:34.789Z,2.50
2018-04-26T07:22:02.254Z,3.30
2018-04-26T07:24:29.712Z,2.30
2018-04-26T07:26:57.157Z,2.00
2018-04-26T07:29:25.423Z,2.03
2018-04-26T07:31:52.884Z,1.90
2018-04-26T07:34:20.409Z,2.13
2018-04-26T07:36:47.947Z,2.17
2018-04-26T07:39:15.468Z,2.30
2018-04-26T07:41:42.945Z,2.33
2018-04-26T07:44:11.200Z,2.60
2018-04-26T07:46:38.674Z,3.03
2018-04-26T07:49:06.128Z,2.70
2018-04-26T07:51:33.590Z,2.50
2018-04-26T07:54:01.044Z,2.27
2018-04-26T07:56:28.517Z,2.83
2018-04-26T07:58:55.973Z,2.57
2018-04-26T08:01:23.614Z,2.10
2018-04-26T08:03:50.983Z,2.37
2018-04-26T08:06:18.434Z,2.50
2018-04-26T08:08:45.901Z,2.33
2018-04-26T08:11:13.374Z,2.23
2018-04-26T08:13:40.837Z,2.50
2018-04-26T08:16:08.306Z,2.43
2018-04-26T08:18:35.797Z,2.53
2018-04-26T08:21:03.260Z,2.17
2018-04-26T08:23:31.480Z,2.50
2018-04-26T08:25:59.038Z,2.50
2018-04-26T08:28:26.477Z,2.37
2018-04-26T08:30:54.730Z,2.50
2018-04-26T08:33:22.180Z,2.53
2018-04-26T08:35:49.643Z,2.60
2018-04-26T08:38:17.113Z,2.30
2018-04-26T08:40:44.558Z,2.30
2018-04-26T08:43:12.103Z,2.70
2018-04-26T08:45:39.529Z,2.00
2018-04-26T08:48:07.025Z,2.73
2018-04-26T08:50:34.528Z,2.23
2018-04-26T08:53:01.989Z,2.17
2018-04-26T08:55:29.461Z,2.10
2018-04-26T08:57:56.906Z,2.63
2018-04-26T09:00:24.459Z,2.47
2018-04-26T09:02:51.922Z,2.40
2018-04-26T09:05:19.369Z,2.10
2018-04-26T09:07:46.851Z,2.10
2018-04-26T09:10:14.306Z,2.17
2018-04-26T09:12:41.799Z,2.30
2018-04-26T09:15:09.359Z,2.40
2018-04-26T09:17:37.791Z,1.70
2018-04-26T09:20:05.260Z,2.03
2018-04-26T09:22:32.711Z,1.90
2018-04-26T09:25:00.159Z,2.27
2018-04-26T09:27:28.497Z,2.10
2018-04-26T09:29:55.980Z,2.23
2018-04-26T09:32:23.409Z,1.97
2018-04-26T09:34:50.912Z,1.70
2018-04-26T09:37:18.366Z,2.10
2018-04-26T09:39:45.805Z,1.80
2018-04-26T09:42:13.278Z,1.70
2018-04-26T09:44:40.741Z,1.80
2018-04-26T09:47:08.190Z,2.20
2018-04-26T09:49:35.651Z,1.47
2018-04-26T09:52:03.114Z,1.70
2018-04-26T09:54:30.573Z,1.70
2018-04-26T09:56:58.033Z,1.60
2018-04-26T09:59:25.476Z,1.50
2018-04-26T10:01:58.631Z,1.40
2018-04-26T10:04:26.100Z,1.40
2018-04-26T10:06:59.414Z,1.43
2018-04-26T10:09:26.870Z,1.90
2018-04-26T10:11:55.094Z,1.53
2018-04-26T10:14:22.575Z,1.60
2018-04-26T10:16:50.023Z,1.50
2018-04-26T10:19:17.498Z,1.70
2018-04-26T10:21:45.085Z,1.27
2018-04-26T10:24:12.546Z,1.50
2018-04-26T10:26:40.078Z,1.53
2018-04-26T10:29:07.540Z,1.60
2018-04-26T10:31:35.080Z,1.70
2018-04-26T10:34:02.665Z,1.77
2018-04-26T10:36:30.230Z,1.60
2018-04-26T10:38:57.679Z,1.50
2018-04-26T10:41:25.159Z,1.90
2018-04-26T10:43:52.602Z,1.60
2018-04-26T10:46:20.073Z,1.20
2018-04-26T10:48:47.519Z,1.33
2018-04-26T10:51:14.977Z,1.27
2018-04-26T10:53:42.438Z,1.23
2018-04-26T10:56:09.891Z,1.40
2018-04-26T10:58:37.365Z,1.37
2018-04-26T11:01:04.827Z,1.53
2018-04-26T11:03:32.323Z,1.30
2018-04-26T11:05:59.794Z,1.30
2018-04-26T11:08:27.293Z,1.70
2018-04-26T11:10:54.749Z,1.80
2018-04-26T11:13:22.982Z,1.87
2018-04-26T11:15:50.437Z,1.70
2018-04-26T11:18:17.996Z,1.63
2018-04-26T11:20:45.518Z,1.50
2018-04-26T11:23:13.080Z,1.40
2018-04-26T11:25:40.532Z,1.23
2018-04-26T11:28:08.075Z,1.50
2018-04-26T11:30:35.526Z,1.60
2018-04-26T11:33:02.989Z,1.67
2018-04-26T11:35:30.450Z,1.43
2018-04-26T11:37:57.926Z,1.60
2018-04-26T11:40:25.481Z,1.40
2018-04-26T11:42:53.047Z,1.50
2018-04-26T11:45:20.510Z,1.50
2018-04-26T11:47:47.974Z,1.57
2018-04-26T11:50:15.450Z,1.60
2018-04-26T11:52:43.009Z,1.50
2018-04-26T11:55:10.478Z,1.53
2018-04-26T11:57:37.930Z,1.50
2018-04-26T12:00:05.385Z,1.20
2018-04-26T12:02:32.890Z,1.30
2018-04-26T12:05:00.315Z,1.77
2018-04-26T12:07:27.753Z,1.67
2018-04-26T12:09:55.239Z,1.10
2018-04-26T12:12:22.714Z,1.03
2018-04-26T12:14:50.165Z,1.20
2018-04-26T12:17:17.656Z,1.70
2018-04-26T12:19:45.198Z,1.27
2018-04-26T12:22:12.634Z,1.50
2018-04-26T12:24:40.120Z,1.40
2018-04-26T12:27:07.690Z,1.30
2018-04-26T12:29:35.142Z,1.23
2018-04-26T12:32:02.586Z,1.03
2018-04-26T12:34:30.060Z,1.00
2018-04-26T12:36:57.512Z,1.10
2018-04-26T12:39:24.983Z,1.33
2018-04-26T12:41:52.438Z,1.17
2018-04-26T12:44:19.891Z,1.20
2018-04-26T12:46:47.366Z,1.00
2018-04-26T12:49:14.854Z,1.20
2018-04-26T12:51:42.314Z,1.20
2018-04-26T12:54:09.783Z,1.47
2018-04-26T12:56:37.221Z,1.40
2018-04-26T12:59:04.768Z,1.70
2018-04-26T13:01:32.258Z,1.07
2018-04-26T13:03:59.717Z,1.10
2018-04-26T13:06:27.188Z,1.97
2018-04-26T13:08:54.656Z,1.40
2018-04-26T13:11:22.126Z,1.40
2018-04-26T13:13:49.666Z,1.40
2018-04-26T13:16:17.133Z,1.20
2018-04-26T13:18:44.601Z,1.40
2018-04-26T13:21:12.095Z,1.57
2018-04-26T13:23:39.662Z,1.43
2018-04-26T13:26:07.065Z,1.93
2018-04-26T13:28:34.534Z,2.00
2018-04-26T13:31:02.017Z,1.60
2018-04-26T13:33:29.495Z,1.57
2018-04-26T13:35:58.502Z,1.40
2018-04-26T13:38:25.978Z,1.30
2018-04-26T13:40:53.502Z,1.30
2018-04-26T13:43:20.998Z,1.60
2018-04-26T13:45:48.431Z,1.57
2018-04-26T13:48:15.897Z,1.37
2018-04-26T13:50:43.338Z,1.27
2018-04-26T13:53:10.825Z,1.20
2018-04-26T13:55:38.378Z,1.80
2018-04-26T13:58:05.843Z,1.37
2018-04-26T14:00:33.306Z,1.20
2018-04-26T14:03:00.770Z,1.20
2018-04-26T14:05:28.405Z,1.40
2018-04-26T14:07:55.875Z,1.40
2018-04-26T14:10:23.351Z,1.37
2018-04-26T14:12:50.792Z,1.37
2018-04-26T14:15:18.266Z,1.20
2018-04-26T14:17:45.855Z,1.87
2018-04-26T14:20:13.305Z,1.27
2018-04-26T14:22:40.777Z,1.20
2018-04-26T14:25:08.246Z,1.50
2018-04-26T14:27:35.706Z,1.40
2018-04-26T14:30:03.183Z,1.33
2018-04-26T14:32:30.650Z,1.33
2018-04-26T14:34:58.090Z,1.50
2018-04-26T14:37:25.592Z,1.50
2018-04-26T14:39:53.113Z,1.40
2018-04-26T14:42:20.583Z,1.70
2018-04-26T14:44:48.399Z,1.50
2018-04-26T14:47:16.616Z,1.37
2018-04-26T14:49:44.080Z,1.30
2018-04-26T14:52:11.539Z,1.47
2018-04-26T14:54:39.006Z,1.43
2018-04-26T14:57:06.583Z,1.60
2018-04-26T14:59:34.031Z,1.60
2018-04-26T15:02:01.493Z,1.40
2018-04-26T15:04:28.990Z,1.27
2018-04-26T15:06:57.199Z,1.30
2018-04-26T15:09:25.463Z,1.23
2018-04-26T15:11:52.922Z,1.40
2018-04-26T15:14:20.391Z,1.27
2018-04-26T15:16:48.637Z,1.30
2018-04-26T15:19:16.094Z,1.30
2018-04-26T15:21:43.564Z,1.40
2018-04-26T15:24:11.026Z,1.20
2018-04-26T15:26:38.500Z,1.73
2018-04-26T15:29:05.966Z,1.23
2018-04-26T15:31:33.455Z,1.20
2018-04-26T15:34:01.666Z,1.60
2018-04-26T15:36:29.145Z,1.37
2018-04-26T15:38:57.127Z,1.20
2018-04-26T15:41:24.586Z,1.70
2018-04-26T15:43:52.044Z,1.20
2018-04-26T15:46:20.426Z,1.50
2018-04-26T15:48:47.877Z,1.43
2018-04-26T15:51:15.350Z,1.17
2018-04-26T15:53:54.622Z,1.80
2018-04-26T15:56:34.866Z,1.17
2018-04-26T15:59:14.254Z,1.50
2018-04-26T16:05:23.900Z,1.13
2018-04-26T16:08:09.495Z,1.67
2018-04-26T16:10:54.513Z,1.30
2018-04-26T16:13:39.549Z,1.40
2018-04-26T16:16:35.218Z,1.17
2018-04-26T16:19:20.758Z,1.40
2018-04-26T16:22:14.945Z,1.43
2018-04-26T16:24:55.286Z,1.57
2018-04-26T16:27:40.429Z,1.40
2018-04-26T16:30:20.486Z,1.30
2018-04-26T16:33:04.984Z,1.93
2018-04-26T16:35:44.413Z,1.60
2018-04-26T16:38:32.548Z,1.67
2018-04-26T16:41:00.026Z,1.30
2018-04-26T16:43:27.464Z,1.57
2018-04-26T16:45:54.917Z,1.60
2018-04-26T16:48:22.451Z,1.30
2018-04-26T16:50:50.696Z,1.20
2018-04-26T16:53:18.134Z,1.10
2018-04-26T16:55:45.610Z,1.60
2018-04-26T16:58:13.075Z,1.40
2018-04-26T17:00:40.551Z,1.50
2018-04-26T17:03:08.019Z,1.30
2018-04-26T17:05:35.462Z,1.10
2018-04-26T17:08:02.925Z,1.20
2018-04-26T17:10:30.391Z,1.47
2018-04-26T17:12:58.031Z,1.70
2018-04-26T17:15:25.561Z,1.27
2018-04-26T17:17:53.019Z,1.50
2018-04-26T17:20:21.330Z,1.10
2018-04-26T17:22:48.894Z,1.40
2018-04-26T17:25:16.393Z,1.50
2018-04-26T17:27:43.855Z,1.20
2018-04-26T17:30:11.302Z,1.40
2018-04-26T17:32:38.778Z,1.37
2018-04-26T17:35:06.221Z,1.17
2018-04-26T17:37:33.668Z,1.47
2018-04-26T17:40:01.142Z,1.30
2018-04-26T17:42:28.597Z,1.50
2018-04-26T17:44:56.052Z,2.00
2018-04-26T17:47:23.540Z,1.50
2018-04-26T17:49:50.977Z,1.20
2018-04-26T17:52:18.443Z,1.53
2018-04-26T17:54:45.930Z,1.63
2018-04-26T17:57:13.410Z,1.53
2018-04-26T17:59:40.864Z,0.93
2018-04-26T18:02:08.325Z,1.27
2018-04-26T18:04:35.794Z,1.10
2018-04-26T18:07:03.255Z,1.57
2018-04-26T18:09:30.733Z,1.37
2018-04-26T18:11:58.173Z,1.60
2018-04-26T18:14:25.633Z,1.30
2018-04-26T18:16:53.087Z,1.20
2018-04-26T18:19:20.563Z,1.30
2018-04-26T18:21:48.026Z,1.50
2018-04-26T18:24:15.589Z,1.40
2018-04-26T18:26:43.043Z,1.20
2018-04-26T18:29:10.497Z,1.20
2018-04-26T18:31:37.958Z,1.17
2018-04-26T18:34:05.426Z,1.63
2018-04-26T18:36:32.910Z,1.40
2018-04-26T18:39:00.401Z,1.10
2018-04-26T18:41:28.641Z,1.20
2018-04-26T18:43:56.127Z,1.40
2018-04-26T18:46:23.597Z,1.40
2018-04-26T18:48:51.239Z,1.30
2018-04-26T18:51:18.733Z,1.37
2018-04-26T18:53:46.170Z,1.13
2018-04-26T18:56:13.627Z,1.63
2018-04-26T18:58:41.078Z,1.40
2018-04-26T19:01:08.569Z,1.20
2018-04-26T19:03:36.005Z,1.33
2018-04-26T19:06:04.443Z,1.53
2018-04-26T19:08:32.667Z,1.80
2018-04-26T19:11:00.111Z,1.57
2018-04-26T19:13:27.593Z,1.63
2018-04-26T19:15:55.046Z,1.43
2018-04-26T19:18:22.494Z,1.37
2018-04-26T19:20:50.016Z,1.60
2018-04-26T19:23:17.462Z,1.37
2018-04-26T19:25:45.028Z,1.80
2018-04-26T19:28:12.592Z,1.30
2018-04-26T19:30:40.154Z,1.47
2018-04-26T19:33:07.682Z,1.63
2018-04-26T19:35:35.120Z,1.60
2018-04-26T19:38:03.394Z,1.90
2018-04-26T19:40:31.701Z,1.70
2018-04-26T19:42:59.252Z,1.77
2018-04-26T19:45:26.793Z,2.20
2018-04-26T19:47:55.063Z,2.03
2018-04-26T19:50:22.602Z,2.20
2018-04-26T19:52:50.048Z,2.03
2018-04-26T19:55:17.511Z,2.10
2018-04-26T19:57:44.991Z,2.10
2018-04-26T20:00:12.454Z,1.97
2018-04-26T20:02:40.137Z,2.00
2018-04-26T20:05:07.660Z,2.23
2018-04-26T20:07:35.102Z,2.13
2018-04-26T20:10:03.354Z,2.03
2018-04-26T20:12:30.809Z,2.00
2018-04-26T20:14:58.253Z,2.10
2018-04-26T20:17:25.740Z,1.93
2018-04-26T20:19:53.183Z,2.20
2018-04-26T20:22:20.845Z,2.00
2018-04-26T20:24:48.301Z,1.83
2018-04-26T20:27:15.774Z,1.87
2018-04-26T20:29:43.226Z,2.70
2018-04-26T20:32:10.689Z,2.23
2018-04-26T20:34:38.142Z,2.57
2018-04-26T20:37:05.598Z,2.73
2018-04-26T20:39:33.073Z,2.70
2018-04-26T20:42:00.523Z,2.30
2018-04-26T20:44:39.908Z,2.50
2018-04-26T20:47:08.857Z,2.63
2018-04-26T20:49:36.318Z,2.67
2018-04-26T20:52:03.796Z,2.90
2018-04-26T20:54:31.253Z,2.10
2018-04-26T20:56:58.702Z,2.30
2018-04-26T20:59:26.186Z,2.33
2018-04-26T21:01:53.658Z,2.50
2018-04-26T21:04:21.114Z,2.10
2018-04-26T21:06:48.571Z,2.13
2018-04-26T21:09:16.041Z,1.83
2018-04-26T21:11:43.510Z,2.17
2018-04-26T21:14:10.988Z,2.00
2018-04-26T21:16:38.600Z,1.93
2018-04-26T21:19:06.080Z,2.30
2018-04-26T21:21:33.554Z,2.17
2018-04-26T21:24:01.022Z,2.20
2018-04-26T21:26:28.582Z,2.57
2018-04-26T21:28:56.037Z,2.37
2018-04-26T21:31:23.481Z,2.00
2018-04-26T21:33:50.951Z,2.43
2018-04-26T21:36:18.435Z,1.97
2018-04-26T21:38:45.902Z,2.27
2018-04-26T21:41:13.358Z,1.97
2018-04-26T21:43:40.798Z,2.13
2018-04-26T21:46:08.272Z,2.10
2018-04-26T21:48:35.750Z,1.80
2018-04-26T21:51:08.872Z,2.20
2018-04-26T21:53:41.974Z,2.13
2018-04-26T21:56:15.219Z,2.10
2018-04-26T21:58:48.450Z,2.03
2018-04-26T22:01:21.512Z,2.33
2018-04-26T22:03:54.801Z,2.23
2018-04-26T22:06:22.264Z,1.83
2018-04-26T22:08:49.725Z,1.87
2018-04-26T22:11:17.302Z,1.70
2018-04-26T22:13:44.859Z,2.13
2018-04-26T22:16:12.423Z,1.90
2018-04-26T22:18:39.867Z,1.50
2018-04-26T22:21:07.347Z,2.10
2018-04-26T22:23:34.794Z,2.13
2018-04-26T22:26:02.264Z,1.90
2018-04-26T22:28:29.717Z,1.90
2018-04-26T22:30:57.150Z,1.80
2018-04-26T22:33:24.627Z,1.60
2018-04-26T22:35:52.094Z,2.50
2018-04-26T22:38:19.583Z,1.80
2018-04-26T22:40:47.036Z,2.00
2018-04-26T22:43:14.493Z,1.80
2018-04-26T22:45:41.973Z,2.00
2018-04-26T22:48:09.466Z,1.87
2018-04-26T22:50:37.102Z,2.13
2018-04-26T22:53:04.562Z,1.97
2018-04-26T22:55:32.035Z,2.20
2018-04-26T22:57:59.487Z,2.40
2018-04-26T23:00:27.056Z,1.90
2018-04-26T23:02:54.515Z,2.37
2018-04-26T23:05:21.995Z,2.23
2018-04-26T23:07:49.434Z,2.00
2018-04-26T23:10:16.904Z,1.87
2018-04-26T23:12:44.362Z,2.00
2018-04-26T23:15:11.830Z,1.90
2018-04-26T23:17:39.286Z,2.27
2018-04-26T23:20:06.722Z,2.17
2018-04-26T23:22:34.209Z,2.00
2018-04-26T23:25:01.649Z,1.60
2018-04-26T23:27:34.735Z,2.00
2018-04-26T23:30:02.217Z,2.00
2018-04-26T23:32:29.664Z,1.87
2018-04-26T23:34:57.106Z,1.80
2018-04-26T23:37:24.563Z,2.03
2018-04-26T23:39:52.770Z,1.90
2018-04-26T23:42:20.226Z,1.70
2018-04-26T23:44:47.675Z,1.70
2018-04-26T23:47:15.178Z,1.90
2018-04-26T23:49:42.626Z,2.10
2018-04-26T23:52:10.115Z,2.07
2018-04-26T23:54:37.568Z,1.97
2018-04-26T23:57:05.043Z,1.97
2018-04-26T23:59:32.503Z,1.97
